»·PEaware :: N7357K KPDX-KSEA

N7357K :: KPDX-KSEA

FLIGHT INFORMATION

Flight Status: Arrived
Operator: Privately registered:
United States
More flights under this callsign
Pilot: Steve F. (18480)
Aircraft: BEECH AIRCRAFT BARON
(BE58)
More flights by this aircraft type
Origin: KPDX Portland Intl
United States
Destination: KSEA Seattle-Tacoma Intl
United States
More flights between these airports :: More routes between these airports
Route: +PTLD1 BTG V495 SEA
File this flight plan on PilotEdge
Remarks:
Altitude:
(Current/Filed)
1,000ft
Speed:
(Current/Filed)
170kts
Departed: 05-Oct-18 06:21 PM
Arrived: 05-Oct-18 07:12 PM
Distance/Time
Traveled:
112nm/0:51
Distance/Time
To Go:
Arrived

Flight Plot

Page will automatically refresh every two minutes.

Flight plan parsing failed; only flown route is shown


Map Options




Map Legend


Flown Route
Filed Route
Departure Airport
Arrival Airport
Navaid (VOR, NDB)
Fix

Horizontal Profiles

Position Reports

Time Latitude Longitude Heading Altitude Ground
Speed
05-Oct-18 18:10 45.586486 -122.581162 299 17ft 0kts
05-Oct-18 18:11 45.586486 -122.581162 299 17ft 0kts
05-Oct-18 18:12 45.586486 -122.581162 299 17ft 0kts
05-Oct-18 18:13 45.586486 -122.581162 299 17ft 0kts
05-Oct-18 18:14 45.586486 -122.581162 299 17ft 0kts
05-Oct-18 18:15 45.586486 -122.581162 299 17ft 0kts
05-Oct-18 18:16 45.586486 -122.581162 299 17ft 0kts
05-Oct-18 18:17 45.586513 -122.581229 299 17ft 5kts
05-Oct-18 18:18 45.588870 -122.583649 298 17ft 17kts
05-Oct-18 18:19 45.592040 -122.591786 297 17ft 28kts
05-Oct-18 18:20 45.593900 -122.596002 354 20ft 0kts
05-Oct-18 18:21 45.593900 -122.596002 354 20ft 0kts
05-Oct-18 18:22 45.594336 -122.595746 46 20ft 13kts
05-Oct-18 18:23 45.587254 -122.578922 121 338ft 112kts
05-Oct-18 18:24 45.572477 -122.537767 111 1516ft 125kts
05-Oct-18 18:25 45.556202 -122.492826 114 2209ft 135kts
05-Oct-18 18:26 45.538705 -122.444035 114 2833ft 138kts
05-Oct-18 18:27 45.521354 -122.394999 114 3238ft 146kts
05-Oct-18 18:28 45.503058 -122.343082 115 3737ft 119kts
05-Oct-18 18:29 45.512172 -122.316534 7 4969ft 125kts
05-Oct-18 18:30 45.551282 -122.332045 351 5279ft 167kts
05-Oct-18 18:31 45.596812 -122.346746 351 5764ft 170kts
05-Oct-18 18:32 45.643670 -122.363162 346 6388ft 175kts
05-Oct-18 18:33 45.690217 -122.384055 333 6999ft 176kts
05-Oct-18 18:34 45.734442 -122.414041 331 7600ft 177kts
05-Oct-18 18:35 45.778991 -122.444246 329 8238ft 177kts
05-Oct-18 18:36 45.823098 -122.474172 327 8868ft 173kts
05-Oct-18 18:37 45.866094 -122.503411 326 9471ft 169kts
05-Oct-18 18:38 45.907780 -122.531817 325 10020ft 165kts
05-Oct-18 18:39 45.954355 -122.553288 353 9993ft 192kts
05-Oct-18 18:40 46.008502 -122.548438 358 9986ft 195kts
05-Oct-18 18:41 46.062601 -122.540292 0 9980ft 195kts
05-Oct-18 18:42 46.116006 -122.531544 0 9973ft 195kts
05-Oct-18 18:43 46.169584 -122.522754 0 9964ft 194kts
05-Oct-18 18:44 46.223115 -122.513938 0 9964ft 194kts
05-Oct-18 18:45 46.267785 -122.506573 0 9965ft 196kts
05-Oct-18 18:46 46.322054 -122.497614 0 9964ft 196kts
05-Oct-18 18:47 46.385681 -122.487077 0 9965ft 197kts
05-Oct-18 18:48 46.430771 -122.479622 1 9966ft 197kts
05-Oct-18 18:49 46.485363 -122.470317 359 9977ft 189kts
05-Oct-18 18:50 46.542554 -122.460924 357 9973ft 174kts
05-Oct-18 18:51 46.582896 -122.454261 357 9977ft 174kts
05-Oct-18 18:52 46.630715 -122.446285 358 9975ft 175kts
05-Oct-18 18:53 46.679447 -122.438128 358 9974ft 175kts
05-Oct-18 18:54 46.727766 -122.430024 358 9972ft 175kts
05-Oct-18 18:55 46.775721 -122.421964 358 9973ft 175kts
05-Oct-18 18:56 46.824501 -122.413752 358 9974ft 175kts
05-Oct-18 18:57 46.873185 -122.405540 358 9974ft 175kts
05-Oct-18 18:58 46.921392 -122.390338 3 9640ft 177kts
05-Oct-18 18:59 46.968433 -122.378060 4 9026ft 169kts
05-Oct-18 19:00 47.009427 -122.367737 5 8516ft 141kts
05-Oct-18 19:01 47.047940 -122.358174 6 7801ft 140kts
05-Oct-18 19:02 47.086038 -122.348671 7 7110ft 139kts
05-Oct-18 19:03 47.122969 -122.337565 2 6436ft 138kts
05-Oct-18 19:04 47.161148 -122.329852 8 5797ft 138kts
05-Oct-18 19:05 47.199429 -122.321779 6 5197ft 140kts
05-Oct-18 19:06 47.237979 -122.316885 3 5016ft 132kts
05-Oct-18 19:07 47.274552 -122.315340 0 4569ft 124kts
05-Oct-18 19:08 47.307497 -122.316438 358 3713ft 114kts
05-Oct-18 19:09 47.338407 -122.318677 358 2771ft 103kts
05-Oct-18 19:10 47.366343 -122.320509 3 1766ft 104kts
05-Oct-18 19:11 47.395812 -122.318824 5 1211ft 106kts
05-Oct-18 19:12 47.425180 -122.317884 359 692ft 104kts
05-Oct-18 19:13 47.448122 -122.318006 1 360ft 44kts
05-Oct-18 19:14 47.454362 -122.316462 35 356ft 0kts
05-Oct-18 19:15 47.453548 -122.313478 179 396ft 26kts
05-Oct-18 19:16 47.445158 -122.313569 180 371ft 30kts
05-Oct-18 19:17 47.438145 -122.312185 92 350ft 22kts
05-Oct-18 19:18 47.438142 -122.305288 82 361ft 14kts

Navigation Log

Ident Type
Flight plan parsing failed, navigation log unavailable